createdAt,value
2022-11-12T00:00:12.252Z,2.57
2022-11-12T00:03:16.617Z,2.40
2022-11-12T00:06:20.740Z,2.37
2022-11-12T00:09:25.108Z,2.53
2022-11-12T00:12:29.549Z,2.57
2022-11-12T00:15:34.073Z,2.33
2022-11-12T00:18:38.282Z,2.27
2022-11-12T00:21:42.366Z,2.27
2022-11-12T00:24:46.707Z,2.30
2022-11-12T00:27:50.888Z,2.50
2022-11-12T00:30:55.165Z,2.40
2022-11-12T00:33:59.335Z,2.23
2022-11-12T00:37:03.873Z,2.40
2022-11-12T00:40:08.773Z,2.57
2022-11-12T00:43:13.243Z,2.47
2022-11-12T00:46:17.258Z,2.03
2022-11-12T00:49:21.501Z,2.50
2022-11-12T00:52:25.859Z,2.37
2022-11-12T00:55:30.171Z,2.40
2022-11-12T00:58:36.097Z,2.37
2022-11-12T01:01:41.035Z,2.27
2022-11-12T01:04:45.030Z,2.50
2022-11-12T01:07:54.740Z,2.20
2022-11-12T01:11:08.188Z,2.10
2022-11-12T01:14:12.199Z,2.10
2022-11-12T01:17:16.169Z,1.97
2022-11-12T01:20:20.444Z,2.20
2022-11-12T01:23:24.544Z,2.10
2022-11-12T01:26:29.011Z,2.30
2022-11-12T01:29:33.393Z,2.30
2022-11-12T01:32:37.968Z,2.10
2022-11-12T01:35:42.488Z,2.10
2022-11-12T01:38:47.632Z,2.03
2022-11-12T01:41:52.139Z,1.90
2022-11-12T01:44:56.636Z,1.80
2022-11-12T01:48:01.527Z,1.80
2022-11-12T01:51:08.017Z,2.10
2022-11-12T01:54:15.693Z,2.10
2022-11-12T01:57:37.103Z,2.10
2022-11-12T02:00:42.256Z,1.90
2022-11-12T02:03:46.676Z,2.27
2022-11-12T02:06:51.814Z,2.13
2022-11-12T02:09:56.238Z,1.80
2022-11-12T02:13:20.369Z,2.20
2022-11-12T02:19:38.021Z,2.17
2022-11-12T02:22:42.630Z,1.70
2022-11-12T02:25:46.833Z,1.90
2022-11-12T02:28:50.806Z,2.10
2022-11-12T02:31:55.051Z,2.30
2022-11-12T02:34:59.454Z,1.93
2022-11-12T02:38:05.034Z,1.73
2022-11-12T02:41:08.877Z,1.73
2022-11-12T02:44:12.947Z,1.70
2022-11-12T02:47:17.193Z,1.90
2022-11-12T02:50:21.214Z,1.87
2022-11-12T02:53:25.647Z,1.87
2022-11-12T02:56:29.938Z,1.57
2022-11-12T02:59:34.040Z,1.60
2022-11-12T03:05:56.306Z,1.70
2022-11-12T03:09:00.462Z,2.00
2022-11-12T03:12:04.874Z,1.90
2022-11-12T03:15:09.820Z,1.90
2022-11-12T03:18:14.270Z,1.80
2022-11-12T03:21:18.463Z,1.60
2022-11-12T03:24:22.587Z,1.70
2022-11-12T03:27:26.614Z,1.70
2022-11-12T03:30:33.958Z,1.50
2022-11-12T03:33:38.335Z,2.00
2022-11-12T03:36:42.577Z,1.73
2022-11-12T03:39:46.857Z,1.90
2022-11-12T03:42:52.354Z,1.70
2022-11-12T03:45:56.415Z,1.87
2022-11-12T03:49:02.672Z,1.70
2022-11-12T03:52:06.833Z,1.60
2022-11-12T03:55:11.426Z,1.47
2022-11-12T03:58:15.651Z,1.83
2022-11-12T04:01:19.815Z,1.60
2022-11-12T04:04:23.779Z,1.60
2022-11-12T04:07:46.590Z,1.50
2022-11-12T04:10:51.253Z,1.63
2022-11-12T04:13:55.640Z,1.63
2022-11-12T04:17:18.356Z,1.60
2022-11-12T04:20:41.045Z,1.40
2022-11-12T04:23:45.229Z,1.43
2022-11-12T04:26:49.337Z,1.60
2022-11-12T04:30:12.507Z,1.60
2022-11-12T04:33:16.791Z,1.40
2022-11-12T04:36:21.356Z,1.50
2022-11-12T04:39:25.569Z,1.60
2022-11-12T04:42:48.148Z,1.90
2022-11-12T04:45:54.026Z,1.40
2022-11-12T04:48:58.143Z,1.33
2022-11-12T04:52:05.253Z,1.60
2022-11-12T04:55:10.069Z,1.67
2022-11-12T04:58:14.029Z,1.30
2022-11-12T05:01:18.161Z,1.70
2022-11-12T05:04:22.461Z,1.60
2022-11-12T05:07:26.534Z,1.60
2022-11-12T05:10:31.209Z,1.40
2022-11-12T05:13:35.145Z,1.60
2022-11-12T05:16:40.066Z,1.40
2022-11-12T05:19:44.256Z,1.63
2022-11-12T05:23:05.003Z,1.40
2022-11-12T05:26:10.460Z,1.33
2022-11-12T05:29:14.606Z,1.37
2022-11-12T05:32:18.900Z,1.53
2022-11-12T05:35:22.935Z,1.30
2022-11-12T05:38:27.316Z,1.20
2022-11-12T05:41:51.101Z,1.50
2022-11-12T05:44:55.783Z,1.45
2022-11-12T05:48:00.069Z,1.50
2022-11-12T05:51:13.149Z,1.50
2022-11-12T05:54:18.437Z,1.50
2022-11-12T05:57:22.231Z,1.40
2022-11-12T06:00:26.377Z,1.20
2022-11-12T06:03:31.109Z,1.20
2022-11-12T06:06:35.741Z,1.40
2022-11-12T06:09:40.450Z,1.27
2022-11-12T06:12:44.645Z,1.50
2022-11-12T06:15:49.095Z,1.50
2022-11-12T06:18:53.366Z,1.67
2022-11-12T06:21:57.637Z,1.70
2022-11-12T06:25:02.250Z,1.87
2022-11-12T06:28:06.591Z,2.23
2022-11-12T06:31:10.964Z,2.10
2022-11-12T06:34:15.174Z,2.10
2022-11-12T06:37:20.041Z,1.70
2022-11-12T06:40:24.306Z,1.97
2022-11-12T06:43:30.775Z,1.70
2022-11-12T06:46:34.897Z,1.73
2022-11-12T06:49:39.398Z,1.80
2022-11-12T06:52:43.819Z,1.90
2022-11-12T06:55:48.196Z,2.13
2022-11-12T06:58:52.494Z,2.00
2022-11-12T07:01:56.560Z,2.00
2022-11-12T07:05:00.985Z,2.10
2022-11-12T07:08:06.668Z,2.43
2022-11-12T07:11:11.435Z,2.20
2022-11-12T07:14:15.195Z,2.33
2022-11-12T07:17:19.174Z,1.90
2022-11-12T07:20:23.628Z,2.30
2022-11-12T07:23:30.703Z,2.03
2022-11-12T07:26:35.211Z,2.00
2022-11-12T07:29:49.012Z,1.87
2022-11-12T07:36:01.843Z,2.08
2022-11-12T07:39:06.136Z,2.23
2022-11-12T07:42:10.233Z,1.93
2022-11-12T07:45:14.390Z,1.80
2022-11-12T07:48:18.605Z,2.00
2022-11-12T07:51:25.912Z,2.20
2022-11-12T07:54:30.117Z,1.80
2022-11-12T07:57:34.810Z,2.40
2022-11-12T08:00:38.710Z,2.07
2022-11-12T08:03:42.864Z,2.63
2022-11-12T08:06:47.390Z,2.70
2022-11-12T08:09:51.708Z,3.10
2022-11-12T08:12:57.094Z,3.43
2022-11-12T08:16:02.755Z,3.13
2022-11-12T08:19:09.312Z,3.33
2022-11-12T08:22:13.935Z,3.50
2022-11-12T08:25:20.368Z,3.50
2022-11-12T08:28:25.062Z,3.40
2022-11-12T08:31:29.555Z,3.63
2022-11-12T08:34:33.936Z,3.73
2022-11-12T08:37:38.020Z,3.70
2022-11-12T08:40:42.228Z,3.97
2022-11-12T08:43:46.706Z,3.17
2022-11-12T08:46:51.649Z,4.10
2022-11-12T08:49:55.622Z,3.67
2022-11-12T08:53:08.342Z,3.40
2022-11-12T08:56:12.893Z,4.43
2022-11-12T08:59:17.681Z,3.57
2022-11-12T09:02:22.259Z,4.17
2022-11-12T09:05:26.211Z,3.67
2022-11-12T09:08:30.583Z,3.50
2022-11-12T09:11:35.255Z,3.87
2022-11-12T09:14:39.365Z,3.80
2022-11-12T09:17:43.473Z,3.77
2022-11-12T09:20:47.777Z,3.67
2022-11-12T09:23:52.145Z,3.87
2022-11-12T09:26:56.585Z,3.50
2022-11-12T09:30:00.963Z,3.70
2022-11-12T09:33:05.161Z,3.70
2022-11-12T09:36:09.403Z,3.60
2022-11-12T09:39:13.350Z,3.70
2022-11-12T09:42:22.217Z,3.07
2022-11-12T09:45:31.264Z,3.57
2022-11-12T09:48:44.348Z,4.07
2022-11-12T09:51:56.528Z,3.37
2022-11-12T09:55:25.841Z,3.03
2022-11-12T09:58:30.158Z,3.17
2022-11-12T10:01:43.327Z,3.07
2022-11-12T10:05:06.115Z,2.92
2022-11-12T10:08:32.106Z,3.07
2022-11-12T10:12:04.580Z,3.33
2022-11-12T10:15:49.745Z,3.20
2022-11-12T10:19:10.341Z,3.70
2022-11-12T10:22:27.403Z,2.90
2022-11-12T10:25:32.424Z,3.17
2022-11-12T10:29:07.898Z,3.20
2022-11-12T10:32:15.587Z,2.83
2022-11-12T10:35:22.850Z,3.60
2022-11-12T10:38:28.902Z,3.93
2022-11-12T10:41:34.204Z,4.20
2022-11-12T10:44:39.571Z,4.10
2022-11-12T10:47:46.815Z,3.93
2022-11-12T10:50:51.246Z,3.40
2022-11-12T10:53:56.270Z,3.27
2022-11-12T10:57:19.797Z,3.50
2022-11-12T11:00:24.326Z,2.85
2022-11-12T11:03:32.554Z,3.43
2022-11-12T11:06:36.996Z,3.50
2022-11-12T11:10:00.252Z,3.20
2022-11-12T11:13:26.879Z,3.23
2022-11-12T11:16:32.000Z,3.73
2022-11-12T11:19:39.775Z,3.20
2022-11-12T11:22:50.306Z,3.07
2022-11-12T11:26:02.821Z,3.10
2022-11-12T11:29:25.195Z,2.70
2022-11-12T11:32:57.306Z,3.33
2022-11-12T11:36:24.516Z,3.47
2022-11-12T11:39:39.574Z,4.03
2022-11-12T11:42:59.190Z,3.73
2022-11-12T11:46:10.945Z,2.93
2022-11-12T11:49:42.973Z,3.20
2022-11-12T11:53:09.835Z,3.17
2022-11-12T11:56:26.382Z,3.03
2022-11-12T11:59:41.729Z,3.80
2022-11-12T12:02:53.169Z,3.80
2022-11-12T12:06:12.348Z,3.60
2022-11-12T12:09:16.301Z,3.37
2022-11-12T12:12:49.943Z,3.10
2022-11-12T12:16:03.000Z,3.83
2022-11-12T12:19:10.999Z,3.27
2022-11-12T12:22:21.992Z,3.20
2022-11-12T12:25:35.852Z,3.43
2022-11-12T12:29:16.841Z,3.30
2022-11-12T12:32:33.478Z,3.20
2022-11-12T12:35:51.803Z,4.13
2022-11-12T12:39:04.419Z,4.17
2022-11-12T12:42:18.682Z,3.03
2022-11-12T12:45:23.198Z,3.90
2022-11-12T12:48:31.554Z,3.90
2022-11-12T12:51:35.956Z,3.53
2022-11-12T12:54:52.201Z,6.50
2022-11-12T12:58:00.120Z,8.47
2022-11-12T13:01:11.616Z,10.13
2022-11-12T13:04:16.011Z,12.50
2022-11-12T13:07:38.863Z,14.37
2022-11-12T13:10:43.232Z,16.37
2022-11-12T13:13:47.607Z,16.07
2022-11-12T13:16:52.075Z,16.10
2022-11-12T13:19:59.082Z,15.73
2022-11-12T13:23:05.648Z,12.93
2022-11-12T13:26:45.672Z,13.90
2022-11-12T13:29:50.180Z,13.33
2022-11-12T13:32:55.960Z,13.03
2022-11-12T13:36:26.031Z,13.77
2022-11-12T13:39:35.527Z,12.90
2022-11-12T13:42:49.809Z,13.33
2022-11-12T13:46:24.899Z,12.80
2022-11-12T13:49:31.940Z,12.10
2022-11-12T13:52:40.372Z,12.33
2022-11-12T13:55:50.031Z,12.73
2022-11-12T13:58:54.331Z,11.13
2022-11-12T14:02:05.347Z,11.73
2022-11-12T14:05:15.695Z,11.53
2022-11-12T14:08:35.124Z,11.30
2022-11-12T14:11:48.785Z,8.67
2022-11-12T14:15:28.608Z,10.60
2022-11-12T14:18:38.706Z,10.27
2022-11-12T14:21:43.485Z,9.43
2022-11-12T14:25:01.629Z,9.63
2022-11-12T14:28:06.450Z,9.77
2022-11-12T14:31:15.045Z,9.30
2022-11-12T14:34:28.842Z,8.90
2022-11-12T14:37:33.100Z,9.27
2022-11-12T14:40:43.661Z,8.33
2022-11-12T14:44:11.029Z,9.07
2022-11-12T14:47:18.168Z,8.53
2022-11-12T14:50:33.403Z,7.93
2022-11-12T14:53:43.706Z,7.93
2022-11-12T14:56:49.523Z,7.07
2022-11-12T14:59:54.506Z,7.20
2022-11-12T15:03:02.134Z,7.30
2022-11-12T15:06:06.303Z,6.70
2022-11-12T15:09:10.410Z,7.50
2022-11-12T15:12:22.398Z,7.40
2022-11-12T15:15:26.870Z,6.03
2022-11-12T15:18:33.817Z,7.20
2022-11-12T15:21:48.073Z,6.47
2022-11-12T15:24:52.602Z,6.60
2022-11-12T15:28:12.568Z,5.83
2022-11-12T15:31:20.797Z,5.80
2022-11-12T15:34:33.106Z,5.77
2022-11-12T15:37:43.445Z,5.50
2022-11-12T15:40:57.268Z,5.80
2022-11-12T15:44:02.822Z,5.33
2022-11-12T15:47:14.364Z,5.00
2022-11-12T15:50:22.759Z,4.87
2022-11-12T15:53:28.570Z,5.13
2022-11-12T15:56:33.261Z,5.33
2022-11-12T15:59:37.672Z,5.07
2022-11-12T16:02:43.026Z,5.00
2022-11-12T16:05:47.317Z,4.93
2022-11-12T16:08:51.343Z,5.10
2022-11-12T16:11:57.509Z,4.83
2022-11-12T16:15:02.196Z,4.50
2022-11-12T16:18:10.050Z,4.80
2022-11-12T16:21:20.494Z,4.67
2022-11-12T16:24:25.185Z,4.53
2022-11-12T16:27:30.231Z,4.63
2022-11-12T16:30:34.670Z,4.73
2022-11-12T16:33:38.956Z,3.73
2022-11-12T16:36:43.203Z,4.47
2022-11-12T16:39:47.266Z,4.17
2022-11-12T16:42:52.255Z,4.03
2022-11-12T16:45:56.632Z,4.07
2022-11-12T16:49:01.026Z,4.50
2022-11-12T16:52:05.158Z,3.83
2022-11-12T16:55:10.320Z,4.47
2022-11-12T16:58:15.162Z,3.90
2022-11-12T17:01:29.352Z,4.03
2022-11-12T17:04:35.985Z,3.90
2022-11-12T17:07:40.186Z,3.73
2022-11-12T17:10:44.869Z,4.53
2022-11-12T17:13:49.678Z,4.43
2022-11-12T17:16:53.988Z,4.30
2022-11-12T17:19:58.504Z,4.30
2022-11-12T17:23:02.600Z,4.40
2022-11-12T17:26:10.329Z,4.00
2022-11-12T17:29:14.599Z,6.37
2022-11-12T17:32:19.260Z,5.57
2022-11-12T17:35:25.128Z,4.50
2022-11-12T17:38:30.883Z,4.60
2022-11-12T17:41:35.109Z,4.23
2022-11-12T17:44:39.855Z,4.87
2022-11-12T17:47:44.937Z,4.30
2022-11-12T17:50:50.117Z,4.57
2022-11-12T17:53:54.912Z,4.23
2022-11-12T17:56:59.375Z,4.70
2022-11-12T18:00:04.947Z,4.27
2022-11-12T18:03:09.288Z,4.50
2022-11-12T18:06:16.653Z,4.47
2022-11-12T18:09:21.563Z,4.07
2022-11-12T18:12:25.646Z,5.20
2022-11-12T18:15:33.295Z,4.73
2022-11-12T18:18:37.779Z,4.90
2022-11-12T18:21:42.499Z,5.20
2022-11-12T18:24:50.964Z,5.90
2022-11-12T18:27:55.725Z,5.57
2022-11-12T18:31:06.798Z,5.37
2022-11-12T18:34:15.106Z,5.17
2022-11-12T18:37:19.401Z,5.03
2022-11-12T18:40:24.339Z,5.67
2022-11-12T18:43:29.213Z,5.73
2022-11-12T18:46:33.936Z,5.90
2022-11-12T18:49:38.980Z,6.10
2022-11-12T18:52:43.753Z,5.70
2022-11-12T18:55:48.358Z,6.03
2022-11-12T18:58:52.956Z,5.70
2022-11-12T19:01:58.840Z,5.67
2022-11-12T19:05:03.478Z,5.20
2022-11-12T19:08:08.070Z,6.20
2022-11-12T19:11:15.453Z,7.03
2022-11-12T19:14:20.111Z,6.87
2022-11-12T19:17:30.491Z,8.30
2022-11-12T19:20:35.689Z,8.70
2022-11-12T19:23:41.428Z,10.23
2022-11-12T19:26:46.637Z,10.93
2022-11-12T19:29:51.237Z,10.07
2022-11-12T19:32:56.720Z,9.60
2022-11-12T19:36:06.712Z,9.50
2022-11-12T19:39:11.842Z,9.27
2022-11-12T19:42:15.988Z,7.90
2022-11-12T19:45:20.133Z,9.00
2022-11-12T19:48:25.092Z,8.97
2022-11-12T19:51:31.309Z,8.97
2022-11-12T19:54:36.057Z,9.47
2022-11-12T19:57:45.111Z,8.77
2022-11-12T20:00:49.377Z,9.70
2022-11-12T20:03:54.305Z,9.37
2022-11-12T20:06:58.520Z,9.03
2022-11-12T20:10:03.167Z,8.97
2022-11-12T20:13:07.195Z,8.43
2022-11-12T20:16:20.731Z,7.17
2022-11-12T20:19:28.104Z,7.00
2022-11-12T20:22:33.083Z,7.63
2022-11-12T20:25:37.575Z,7.20
2022-11-12T20:28:43.208Z,7.00
2022-11-12T20:31:47.803Z,7.20
2022-11-12T20:34:52.474Z,7.30
2022-11-12T20:37:56.583Z,7.40
2022-11-12T20:41:02.803Z,7.50
2022-11-12T20:44:06.882Z,7.43
2022-11-12T20:47:11.035Z,7.03
2022-11-12T20:50:15.981Z,6.93
2022-11-12T20:53:20.586Z,7.27
2022-11-12T20:56:26.875Z,7.13
2022-11-12T20:59:31.703Z,6.67
2022-11-12T21:02:35.783Z,6.87
2022-11-12T21:05:39.950Z,7.80
2022-11-12T21:08:45.043Z,7.33
2022-11-12T21:11:49.464Z,6.93
2022-11-12T21:14:53.940Z,6.43
2022-11-12T21:17:57.873Z,6.63
2022-11-12T21:21:05.208Z,6.20
2022-11-12T21:24:09.454Z,6.43
2022-11-12T21:27:13.967Z,6.17
2022-11-12T21:30:19.834Z,6.47
2022-11-12T21:33:24.168Z,6.40
2022-11-12T21:36:28.605Z,6.20
2022-11-12T21:39:32.813Z,6.07
2022-11-12T21:42:37.039Z,5.83
2022-11-12T21:45:46.399Z,5.50
2022-11-12T21:48:55.279Z,5.90
2022-11-12T21:51:59.851Z,5.93
2022-11-12T21:55:04.700Z,5.57
2022-11-12T21:58:08.758Z,6.13
2022-11-12T22:01:19.907Z,5.90
2022-11-12T22:04:24.984Z,5.87
2022-11-12T22:07:28.901Z,6.03
2022-11-12T22:10:33.113Z,5.37
2022-11-12T22:13:38.158Z,5.30
2022-11-12T22:16:42.241Z,5.00
2022-11-12T22:19:46.434Z,5.40
2022-11-12T22:22:52.203Z,5.50
2022-11-12T22:25:57.755Z,5.13
2022-11-12T22:29:02.015Z,5.10
2022-11-12T22:32:06.677Z,4.93
2022-11-12T22:35:11.251Z,5.30
2022-11-12T22:38:15.204Z,5.50
2022-11-12T22:41:21.763Z,4.70
2022-11-12T22:44:25.839Z,5.30
2022-11-12T22:47:30.079Z,4.53
2022-11-12T22:50:34.361Z,5.30
2022-11-12T22:53:39.116Z,4.50
2022-11-12T22:56:43.159Z,5.07
2022-11-12T22:59:47.151Z,4.93
2022-11-12T23:02:51.147Z,5.57
2022-11-12T23:06:05.360Z,5.07
2022-11-12T23:09:15.406Z,4.93
2022-11-12T23:12:19.382Z,4.50
2022-11-12T23:15:23.387Z,4.70
2022-11-12T23:18:27.767Z,4.17
2022-11-12T23:21:32.486Z,4.67
2022-11-12T23:24:36.584Z,4.53
2022-11-12T23:27:40.685Z,4.03
2022-11-12T23:30:50.349Z,4.13
2022-11-12T23:33:56.756Z,4.50
2022-11-12T23:37:00.464Z,4.73
2022-11-12T23:40:05.184Z,4.40
2022-11-12T23:43:09.603Z,4.17
2022-11-12T23:46:14.002Z,3.97
2022-11-12T23:49:18.209Z,4.17
2022-11-12T23:52:22.474Z,4.20
2022-11-12T23:55:29.127Z,4.23
2022-11-12T23:58:33.741Z,4.20
